sensor_id;sensor_type;location;lat;lon;timestamp;pressure;altitude;pressure_sealevel;temperature;humidity
72116;BME280;59991;52.140;5.428;2023-06-10T00:00:15;101520.31;;;20.48;52.78
72116;BME280;59991;52.140;5.428;2023-06-10T00:00:47;101522.31;;;20.48;53.43
72116;BME280;59991;52.140;5.428;2023-06-10T00:01:18;101517.19;;;20.46;52.45
72116;BME280;59991;52.140;5.428;2023-06-10T00:01:50;101514.84;;;20.45;52.59
72116;BME280;59991;52.140;5.428;2023-06-10T00:02:21;101512.09;;;20.45;53.17
72116;BME280;59991;52.140;5.428;2023-06-10T00:02:53;101516.06;;;20.44;53.01
72116;BME280;59991;52.140;5.428;2023-06-10T00:03:25;101511.72;;;20.43;52.26
72116;BME280;59991;52.140;5.428;2023-06-10T00:03:56;101515.69;;;20.42;52.38
72116;BME280;59991;52.140;5.428;2023-06-10T00:04:28;101520.13;;;20.39;52.27
72116;BME280;59991;52.140;5.428;2023-06-10T00:05:00;101515.03;;;20.38;52.94
72116;BME280;59991;52.140;5.428;2023-06-10T00:05:31;101522.91;;;20.39;53.00
72116;BME280;59991;52.140;5.428;2023-06-10T00:06:03;101517.00;;;20.37;52.93
72116;BME280;59991;52.140;5.428;2023-06-10T00:06:34;101517.41;;;20.35;53.36
72116;BME280;59991;52.140;5.428;2023-06-10T00:07:09;101520.97;;;20.36;53.54
72116;BME280;59991;52.140;5.428;2023-06-10T00:07:41;101520.59;;;20.34;53.22
72116;BME280;59991;52.140;5.428;2023-06-10T00:08:13;101515.50;;;20.32;52.61
72116;BME280;59991;52.140;5.428;2023-06-10T00:08:47;101521.09;;;20.29;53.63
72116;BME280;59991;52.140;5.428;2023-06-10T00:09:19;101519.88;;;20.30;52.79
72116;BME280;59991;52.140;5.428;2023-06-10T00:09:52;101517.13;;;20.30;52.89
72116;BME280;59991;52.140;5.428;2023-06-10T00:10:24;101518.31;;;20.29;52.80
72116;BME280;59991;52.140;5.428;2023-06-10T00:10:55;101519.88;;;20.30;52.84
72116;BME280;59991;52.140;5.428;2023-06-10T00:11:27;101522.31;;;20.28;52.51
72116;BME280;59991;52.140;5.428;2023-06-10T00:11:59;101521.16;;;20.25;52.29
72116;BME280;59991;52.140;5.428;2023-06-10T00:12:31;101521.94;;;20.26;52.83
72116;BME280;59991;52.140;5.428;2023-06-10T00:13:08;101521.94;;;20.26;53.77
72116;BME280;59991;52.140;5.428;2023-06-10T00:13:40;101530.25;;;20.26;52.96
72116;BME280;59991;52.140;5.428;2023-06-10T00:14:12;101522.38;;;20.24;53.08
72116;BME280;59991;52.140;5.428;2023-06-10T00:14:44;101522.00;;;20.22;53.80
72116;BME280;59991;52.140;5.428;2023-06-10T00:15:15;101521.22;;;20.22;53.61
72116;BME280;59991;52.140;5.428;2023-06-10T00:15:46;101526.78;;;20.22;53.08
72116;BME280;59991;52.140;5.428;2023-06-10T00:16:18;101524.78;;;20.22;54.17
72116;BME280;59991;52.140;5.428;2023-06-10T00:16:50;101524.78;;;20.22;53.57
72116;BME280;59991;52.140;5.428;2023-06-10T00:17:23;101524.00;;;20.22;52.47
72116;BME280;59991;52.140;5.428;2023-06-10T00:17:55;101526.44;;;20.20;53.42
72116;BME280;59991;52.140;5.428;2023-06-10T00:18:26;101527.28;;;20.17;53.36
72116;BME280;59991;52.140;5.428;2023-06-10T00:19:01;101527.72;;;20.15;53.48
72116;BME280;59991;52.140;5.428;2023-06-10T00:19:33;101517.06;;;20.14;52.69
72116;BME280;59991;52.140;5.428;2023-06-10T00:20:08;101525.00;;;20.12;53.83
72116;BME280;59991;52.140;5.428;2023-06-10T00:20:43;101521.47;;;20.11;52.71
72116;BME280;59991;52.140;5.428;2023-06-10T00:21:14;101528.97;;;20.11;52.03
72116;BME280;59991;52.140;5.428;2023-06-10T00:21:46;101522.66;;;20.10;52.57
72116;BME280;59991;52.140;5.428;2023-06-10T00:22:17;101526.56;;;20.13;53.16
72116;BME280;59991;52.140;5.428;2023-06-10T00:22:50;101530.56;;;20.12;52.74
72116;BME280;59991;52.140;5.428;2023-06-10T00:23:21;101522.66;;;20.10;52.60
72116;BME280;59991;52.140;5.428;2023-06-10T00:23:54;101529.84;;;20.08;52.15
72116;BME280;59991;52.140;5.428;2023-06-10T00:24:26;101529.41;;;20.09;52.36
72116;BME280;59991;52.140;5.428;2023-06-10T00:24:58;101525.84;;;20.09;52.82
72116;BME280;59991;52.140;5.428;2023-06-10T00:25:29;101524.28;;;20.08;52.21
72116;BME280;59991;52.140;5.428;2023-06-10T00:26:01;101518.41;;;20.06;52.25
72116;BME280;59991;52.140;5.428;2023-06-10T00:26:32;101528.25;;;20.07;52.37
72116;BME280;59991;52.140;5.428;2023-06-10T00:27:05;101529.47;;;20.06;52.86
72116;BME280;59991;52.140;5.428;2023-06-10T00:27:38;101521.94;;;20.06;52.51
72116;BME280;59991;52.140;5.428;2023-06-10T00:28:09;101525.06;;;20.08;52.41
72116;BME280;59991;52.140;5.428;2023-06-10T00:28:40;101528.25;;;20.07;52.20
72116;BME280;59991;52.140;5.428;2023-06-10T00:29:12;101525.94;;;20.05;52.41
72116;BME280;59991;52.140;5.428;2023-06-10T00:29:44;101527.56;;;20.02;51.34
72116;BME280;59991;52.140;5.428;2023-06-10T00:30:16;101523.66;;;20.00;51.17
72116;BME280;59991;52.140;5.428;2023-06-10T00:30:47;101525.22;;;20.01;51.50
72116;BME280;59991;52.140;5.428;2023-06-10T00:31:19;101522.88;;;19.99;51.96
72116;BME280;59991;52.140;5.428;2023-06-10T00:31:50;101520.13;;;19.99;52.22
72116;BME280;59991;52.140;5.428;2023-06-10T00:32:22;101520.13;;;19.99;52.65
72116;BME280;59991;52.140;5.428;2023-06-10T00:32:53;101521.69;;;20.00;52.44
72116;BME280;59991;52.140;5.428;2023-06-10T00:33:25;101524.00;;;20.02;53.01
72116;BME280;59991;52.140;5.428;2023-06-10T00:33:56;101524.44;;;20.00;51.97
72116;BME280;59991;52.140;5.428;2023-06-10T00:34:30;101522.47;;;20.01;51.67
72116;BME280;59991;52.140;5.428;2023-06-10T00:35:02;101522.09;;;19.99;51.73
72116;BME280;59991;52.140;5.428;2023-06-10T00:35:34;101528.06;;;19.97;52.31
72116;BME280;59991;52.140;5.428;2023-06-10T00:36:05;101520.19;;;19.96;51.82
72116;BME280;59991;52.140;5.428;2023-06-10T00:36:37;101532.81;;;19.97;52.31
72116;BME280;59991;52.140;5.428;2023-06-10T00:37:08;101530.06;;;19.97;51.74
72116;BME280;59991;52.140;5.428;2023-06-10T00:37:40;101524.16;;;19.95;51.56
72116;BME280;59991;52.140;5.428;2023-06-10T00:38:13;101529.28;;;19.96;52.63
72116;BME280;59991;52.140;5.428;2023-06-10T00:38:45;101528.50;;;19.96;52.86
72116;BME280;59991;52.140;5.428;2023-06-10T00:39:16;101526.94;;;19.95;52.40
72116;BME280;59991;52.140;5.428;2023-06-10T00:39:48;101525.78;;;19.92;51.74
72116;BME280;59991;52.140;5.428;2023-06-10T00:40:19;101527.00;;;19.91;51.86
72116;BME280;59991;52.140;5.428;2023-06-10T00:40:50;101528.63;;;19.89;52.02
72116;BME280;59991;52.140;5.428;2023-06-10T00:41:23;101532.16;;;19.89;51.94
72116;BME280;59991;52.140;5.428;2023-06-10T00:41:54;101529.81;;;19.88;51.73
72116;BME280;59991;52.140;5.428;2023-06-10T00:42:25;101530.25;;;19.86;52.28
72116;BME280;59991;52.140;5.428;2023-06-10T00:42:57;101529.03;;;19.87;52.13
72116;BME280;59991;52.140;5.428;2023-06-10T00:43:28;101525.06;;;19.88;53.19
72116;BME280;59991;52.140;5.428;2023-06-10T00:44:00;101528.63;;;19.89;52.65
72116;BME280;59991;52.140;5.428;2023-06-10T00:44:31;101530.59;;;19.88;52.07
72116;BME280;59991;52.140;5.428;2023-06-10T00:45:03;101534.94;;;19.89;52.76
72116;BME280;59991;52.140;5.428;2023-06-10T00:45:34;101529.41;;;19.89;51.79
72116;BME280;59991;52.140;5.428;2023-06-10T00:46:06;101537.69;;;19.89;52.72
72116;BME280;59991;52.140;5.428;2023-06-10T00:46:38;101529.81;;;19.88;51.88
72116;BME280;59991;52.140;5.428;2023-06-10T00:47:09;101531.03;;;19.87;52.69
72116;BME280;59991;52.140;5.428;2023-06-10T00:47:41;101523.16;;;19.85;52.02
72116;BME280;59991;52.140;5.428;2023-06-10T00:48:13;101531.88;;;19.84;51.62
72116;BME280;59991;52.140;5.428;2023-06-10T00:48:45;101534.31;;;19.82;51.69
72116;BME280;59991;52.140;5.428;2023-06-10T00:49:17;101531.97;;;19.80;51.70
72116;BME280;59991;52.140;5.428;2023-06-10T00:49:52;101529.59;;;19.79;51.25
72116;BME280;59991;52.140;5.428;2023-06-10T00:50:25;101534.38;;;19.78;50.49
72116;BME280;59991;52.140;5.428;2023-06-10T00:50:57;101525.69;;;19.76;51.43
72116;BME280;59991;52.140;5.428;2023-06-10T00:51:29;101534.78;;;19.77;50.85
72116;BME280;59991;52.140;5.428;2023-06-10T00:52:02;101535.56;;;19.77;51.07
72116;BME280;59991;52.140;5.428;2023-06-10T00:52:35;101532.44;;;19.75;50.52
72116;BME280;59991;52.140;5.428;2023-06-10T00:53:08;101534.41;;;19.75;51.15
72116;BME280;59991;52.140;5.428;2023-06-10T00:53:40;101533.63;;;19.74;50.77
72116;BME280;59991;52.140;5.428;2023-06-10T00:54:12;101531.28;;;19.73;51.28
72116;BME280;59991;52.140;5.428;2023-06-10T00:54:45;101529.31;;;19.73;51.38
72116;BME280;59991;52.140;5.428;2023-06-10T00:55:16;101534.47;;;19.71;51.31
72116;BME280;59991;52.140;5.428;2023-06-10T00:55:49;101527.38;;;19.70;50.78
72116;BME280;59991;52.140;5.428;2023-06-10T00:56:20;101530.94;;;19.71;51.05
72116;BME280;59991;52.140;5.428;2023-06-10T00:56:53;101535.25;;;19.72;51.04
72116;BME280;59991;52.140;5.428;2023-06-10T00:57:25;101524.97;;;19.72;50.46
72116;BME280;59991;52.140;5.428;2023-06-10T00:57:56;101534.47;;;19.71;51.50
72116;BME280;59991;52.140;5.428;2023-06-10T00:58:28;101534.47;;;19.71;50.06
72116;BME280;59991;52.140;5.428;2023-06-10T00:59:00;101528.94;;;19.71;50.23
72116;BME280;59991;52.140;5.428;2023-06-10T00:59:31;101526.19;;;19.71;50.83
72116;BME280;59991;52.140;5.428;2023-06-10T01:00:03;101527.38;;;19.70;50.76
72116;BME280;59991;52.140;5.428;2023-06-10T01:00:39;101532.06;;;19.73;50.50
72116;BME280;59991;52.140;5.428;2023-06-10T01:01:10;101534.47;;;19.71;51.04
72116;BME280;59991;52.140;5.428;2023-06-10T01:01:42;101532.56;;;19.68;50.51
72116;BME280;59991;52.140;5.428;2023-06-10T01:02:15;101532.56;;;19.68;50.67
72116;BME280;59991;52.140;5.428;2023-06-10T01:02:47;101525.47;;;19.67;50.58
72116;BME280;59991;52.140;5.428;2023-06-10T01:03:19;101526.66;;;19.66;50.63
72116;BME280;59991;52.140;5.428;2023-06-10T01:03:50;101530.22;;;19.66;51.22
72116;BME280;59991;52.140;5.428;2023-06-10T01:04:22;101531.78;;;19.67;50.15
72116;BME280;59991;52.140;5.428;2023-06-10T01:04:54;101527.44;;;19.66;50.57
72116;BME280;59991;52.140;5.428;2023-06-10T01:05:26;101531.41;;;19.65;51.36
72116;BME280;59991;52.140;5.428;2023-06-10T01:06:06;101537.81;;;19.62;50.56
72116;BME280;59991;52.140;5.428;2023-06-10T01:06:50;101527.50;;;19.63;50.41
72116;BME280;59991;52.140;5.428;2023-06-10T01:07:50;101530.28;;;19.63;51.03
72116;BME280;59991;52.140;5.428;2023-06-10T01:08:37;101528.72;;;19.62;50.34
72116;BME280;59991;52.140;5.428;2023-06-10T01:09:35;101528.72;;;19.62;51.08
72116;BME280;59991;52.140;5.428;2023-06-10T01:10:14;101531.91;;;19.60;50.44
72116;BME280;59991;52.140;5.428;2023-06-10T01:10:52;101524.03;;;19.59;50.81
72116;BME280;59991;52.140;5.428;2023-06-10T01:11:29;101535.94;;;19.56;51.06
72116;BME280;59991;52.140;5.428;2023-06-10T01:12:13;101527.66;;;19.56;50.07
72116;BME280;59991;52.140;5.428;2023-06-10T01:12:59;101532.47;;;19.52;51.01
72116;BME280;59991;52.140;5.428;2023-06-10T01:13:35;101529.31;;;19.50;50.18
72116;BME280;59991;52.140;5.428;2023-06-10T01:14:09;101529.31;;;19.50;50.25
72116;BME280;59991;52.140;5.428;2023-06-10T01:14:41;101531.28;;;19.49;50.18
72116;BME280;59991;52.140;5.428;2023-06-10T01:15:17;101530.50;;;19.49;50.12
72116;BME280;59991;52.140;5.428;2023-06-10T01:15:50;101530.50;;;19.49;50.76
72116;BME280;59991;52.140;5.428;2023-06-10T01:16:23;101530.09;;;19.50;50.47
72116;BME280;59991;52.140;5.428;2023-06-10T01:16:54;101531.28;;;19.49;50.37
72116;BME280;59991;52.140;5.428;2023-06-10T01:17:26;101534.84;;;19.50;50.81
72116;BME280;59991;52.140;5.428;2023-06-10T01:18:01;101541.94;;;19.51;50.24
72116;BME280;59991;52.140;5.428;2023-06-10T01:18:33;101537.22;;;19.51;50.58
72116;BME280;59991;52.140;5.428;2023-06-10T01:19:04;101534.84;;;19.50;50.17
72116;BME280;59991;52.140;5.428;2023-06-10T01:19:37;101538.78;;;19.52;51.02
72116;BME280;59991;52.140;5.428;2023-06-10T01:20:09;101534.84;;;19.50;50.02
72116;BME280;59991;52.140;5.428;2023-06-10T01:20:44;101538.41;;;19.50;50.43
72116;BME280;59991;52.140;5.428;2023-06-10T01:21:23;101538.78;;;19.49;50.50
72116;BME280;59991;52.140;5.428;2023-06-10T01:21:55;101536.41;;;19.51;49.94
72116;BME280;59991;52.140;5.428;2023-06-10T01:22:27;101536.81;;;19.49;50.51
72116;BME280;59991;52.140;5.428;2023-06-10T01:23:09;101535.63;;;19.50;51.25
72116;BME280;59991;52.140;5.428;2023-06-10T01:23:40;101543.16;;;19.50;51.41
72116;BME280;59991;52.140;5.428;2023-06-10T01:24:12;101541.16;;;19.50;50.24
72116;BME280;59991;52.140;5.428;2023-06-10T01:24:45;101541.16;;;19.50;50.66
72116;BME280;59991;52.140;5.428;2023-06-10T01:25:17;101538.00;;;19.52;50.93
72116;BME280;59991;52.140;5.428;2023-06-10T01:25:57;101539.19;;;19.51;50.83
72116;BME280;59991;52.140;5.428;2023-06-10T01:26:32;101538.00;;;19.52;50.73
72116;BME280;59991;52.140;5.428;2023-06-10T01:27:10;101539.56;;;19.49;50.60
72116;BME280;59991;52.140;5.428;2023-06-10T01:27:44;101534.88;;;19.46;51.59
72116;BME280;59991;52.140;5.428;2023-06-10T01:28:22;101544.38;;;19.45;51.02
72116;BME280;59991;52.140;5.428;2023-06-10T01:29:39;101540.06;;;19.44;51.23
72116;BME280;59991;52.140;5.428;2023-06-10T01:30:20;101546.38;;;19.45;50.91
72116;BME280;59991;52.140;5.428;2023-06-10T01:31:16;101540.84;;;19.45;51.18
72116;BME280;59991;52.140;5.428;2023-06-10T01:32:01;101537.28;;;19.44;50.87
72116;BME280;59991;52.140;5.428;2023-06-10T01:32:40;101547.56;;;19.44;51.61
72116;BME280;59991;52.140;5.428;2023-06-10T01:33:19;101540.50;;;19.43;51.13
72116;BME280;59991;52.140;5.428;2023-06-10T01:33:54;101540.91;;;19.41;51.95
72116;BME280;59991;52.140;5.428;2023-06-10T01:34:27;101540.13;;;19.41;50.95
72116;BME280;59991;52.140;5.428;2023-06-10T01:35:01;101540.56;;;19.39;51.64
72116;BME280;59991;52.140;5.428;2023-06-10T01:35:35;101542.53;;;19.39;51.97
72116;BME280;59991;52.140;5.428;2023-06-10T01:36:08;101539.78;;;19.39;51.27
72116;BME280;59991;52.140;5.428;2023-06-10T01:36:41;101544.94;;;19.37;51.92
72116;BME280;59991;52.140;5.428;2023-06-10T01:37:18;101546.91;;;19.36;50.89
72116;BME280;59991;52.140;5.428;2023-06-10T01:37:53;101540.59;;;19.36;51.69
72116;BME280;59991;52.140;5.428;2023-06-10T01:38:27;101539.09;;;19.31;50.78
72116;BME280;59991;52.140;5.428;2023-06-10T01:39:04;101541.50;;;19.29;50.53
72116;BME280;59991;52.140;5.428;2023-06-10T01:39:36;101541.91;;;19.27;51.75
72116;BME280;59991;52.140;5.428;2023-06-10T01:40:08;101537.59;;;19.26;51.43
72116;BME280;59991;52.140;5.428;2023-06-10T01:40:41;101536.38;;;19.27;51.60
72116;BME280;59991;52.140;5.428;2023-06-10T01:41:16;101537.59;;;19.26;52.31
72116;BME280;59991;52.140;5.428;2023-06-10T01:41:48;101538.38;;;19.27;52.10
72116;BME280;59991;52.140;5.428;2023-06-10T01:42:21;101529.28;;;19.26;51.98
72116;BME280;59991;52.140;5.428;2023-06-10T01:42:53;101540.34;;;19.26;51.20
72116;BME280;59991;52.140;5.428;2023-06-10T01:43:24;101540.44;;;19.23;51.86
72116;BME280;59991;52.140;5.428;2023-06-10T01:43:56;101541.22;;;19.23;51.65
72116;BME280;59991;52.140;5.428;2023-06-10T01:44:27;101537.66;;;19.23;51.62
72116;BME280;59991;52.140;5.428;2023-06-10T01:44:59;101537.66;;;19.23;52.09
72116;BME280;59991;52.140;5.428;2023-06-10T01:45:30;101537.22;;;19.24;51.86
72116;BME280;59991;52.140;5.428;2023-06-10T01:46:02;101539.22;;;19.24;52.51
72116;BME280;59991;52.140;5.428;2023-06-10T01:46:33;101533.69;;;19.24;51.84
72116;BME280;59991;52.140;5.428;2023-06-10T01:47:05;101542.00;;;19.24;51.50
72116;BME280;59991;52.140;5.428;2023-06-10T01:47:36;101536.47;;;19.24;52.03
72116;BME280;59991;52.140;5.428;2023-06-10T01:48:08;101538.44;;;19.23;51.69
72116;BME280;59991;52.140;5.428;2023-06-10T01:48:43;101536.09;;;19.22;52.12
72116;BME280;59991;52.140;5.428;2023-06-10T01:49:15;101540.84;;;19.21;52.50
72116;BME280;59991;52.140;5.428;2023-06-10T01:49:47;101536.50;;;19.20;52.15
72116;BME280;59991;52.140;5.428;2023-06-10T01:50:18;101531.00;;;19.20;52.38
72116;BME280;59991;52.140;5.428;2023-06-10T01:50:49;101540.47;;;19.19;51.84
72116;BME280;59991;52.140;5.428;2023-06-10T01:51:21;101534.59;;;19.17;52.04
72116;BME280;59991;52.140;5.428;2023-06-10T01:51:52;101536.56;;;19.17;52.52
72116;BME280;59991;52.140;5.428;2023-06-10T01:52:24;101540.53;;;19.16;52.00
72116;BME280;59991;52.140;5.428;2023-06-10T01:52:57;101533.03;;;19.16;52.02
72116;BME280;59991;52.140;5.428;2023-06-10T01:53:29;101536.19;;;19.15;52.80
72116;BME280;59991;52.140;5.428;2023-06-10T01:54:00;101529.88;;;19.14;52.25
72116;BME280;59991;52.140;5.428;2023-06-10T01:54:31;101528.69;;;19.15;52.70
72116;BME280;59991;52.140;5.428;2023-06-10T01:55:06;101540.13;;;19.17;52.91
72116;BME280;59991;52.140;5.428;2023-06-10T01:55:38;101533.81;;;19.17;53.03
72116;BME280;59991;52.140;5.428;2023-06-10T01:56:09;101534.59;;;19.17;52.65
72116;BME280;59991;52.140;5.428;2023-06-10T01:56:41;101532.59;;;19.18;52.93
72116;BME280;59991;52.140;5.428;2023-06-10T01:57:12;101535.00;;;19.16;53.03
72116;BME280;59991;52.140;5.428;2023-06-10T01:57:43;101529.88;;;19.14;51.99
72116;BME280;59991;52.140;5.428;2023-06-10T01:58:15;101537.78;;;19.16;52.29
72116;BME280;59991;52.140;5.428;2023-06-10T01:58:46;101537.34;;;19.17;52.41
72116;BME280;59991;52.140;5.428;2023-06-10T01:59:18;101530.69;;;19.15;53.16
72116;BME280;59991;52.140;5.428;2023-06-10T01:59:49;101531.47;;;19.15;52.26
72116;BME280;59991;52.140;5.428;2023-06-10T02:00:21;101531.47;;;19.15;52.19
72116;BME280;59991;52.140;5.428;2023-06-10T02:00:52;101534.22;;;19.15;52.41
72116;BME280;59991;52.140;5.428;2023-06-10T02:01:28;101538.56;;;19.16;52.93
72116;BME280;59991;52.140;5.428;2023-06-10T02:02:00;101535.00;;;19.16;52.92
72116;BME280;59991;52.140;5.428;2023-06-10T02:02:31;101538.19;;;19.14;52.77
72116;BME280;59991;52.140;5.428;2023-06-10T02:03:03;101537.81;;;19.12;53.51
72116;BME280;59991;52.140;5.428;2023-06-10T02:03:34;101535.84;;;19.13;53.33
72116;BME280;59991;52.140;5.428;2023-06-10T02:04:06;101539.38;;;19.13;53.43
72116;BME280;59991;52.140;5.428;2023-06-10T02:04:37;101542.16;;;19.13;52.98
72116;BME280;59991;52.140;5.428;2023-06-10T02:05:09;101539.38;;;19.13;52.96
72116;BME280;59991;52.140;5.428;2023-06-10T02:05:41;101535.84;;;19.13;53.13
72116;BME280;59991;52.140;5.428;2023-06-10T02:06:13;101540.16;;;19.14;52.79
72116;BME280;59991;52.140;5.428;2023-06-10T02:06:44;101539.38;;;19.13;52.75
72116;BME280;59991;52.140;5.428;2023-06-10T02:07:16;101532.28;;;19.12;53.02
72116;BME280;59991;52.140;5.428;2023-06-10T02:07:47;101537.09;;;19.08;52.75
72116;BME280;59991;52.140;5.428;2023-06-10T02:08:19;101537.91;;;19.05;52.81
72116;BME280;59991;52.140;5.428;2023-06-10T02:08:50;101538.38;;;19.04;53.58
72116;BME280;59991;52.140;5.428;2023-06-10T02:09:22;101541.91;;;19.04;53.30
72116;BME280;59991;52.140;5.428;2023-06-10T02:09:54;101535.16;;;19.05;54.26
72116;BME280;59991;52.140;5.428;2023-06-10T02:10:25;101541.13;;;19.04;53.57
72116;BME280;59991;52.140;5.428;2023-06-10T02:10:57;101536.38;;;19.04;53.79
72116;BME280;59991;52.140;5.428;2023-06-10T02:11:28;101539.16;;;19.04;53.42
72116;BME280;59991;52.140;5.428;2023-06-10T02:12:02;101545.88;;;19.03;54.06
72116;BME280;59991;52.140;5.428;2023-06-10T02:12:34;101545.50;;;19.01;53.76
72116;BME280;59991;52.140;5.428;2023-06-10T02:13:06;101544.72;;;19.01;53.70
72116;BME280;59991;52.140;5.428;2023-06-10T02:13:40;101546.69;;;19.00;54.21
72116;BME280;59991;52.140;5.428;2023-06-10T02:14:11;101541.19;;;19.00;53.83
72116;BME280;59991;52.140;5.428;2023-06-10T02:14:43;101541.97;;;19.01;53.76
72116;BME280;59991;52.140;5.428;2023-06-10T02:15:14;101531.69;;;19.01;53.90
72116;BME280;59991;52.140;5.428;2023-06-10T02:15:46;101543.53;;;19.02;54.34
72116;BME280;59991;52.140;5.428;2023-06-10T02:16:17;101533.25;;;19.02;53.79
72116;BME280;59991;52.140;5.428;2023-06-10T02:16:50;101545.09;;;19.03;54.00
72116;BME280;59991;52.140;5.428;2023-06-10T02:17:22;101548.28;;;19.01;53.77
72116;BME280;59991;52.140;5.428;2023-06-10T02:17:54;101541.97;;;19.01;53.28
72116;BME280;59991;52.140;5.428;2023-06-10T02:18:27;101545.91;;;19.00;53.40
72116;BME280;59991;52.140;5.428;2023-06-10T02:18:59;101538.47;;;18.96;54.36
72116;BME280;59991;52.140;5.428;2023-06-10T02:19:32;101547.59;;;18.93;54.13
72116;BME280;59991;52.140;5.428;2023-06-10T02:20:08;101546.44;;;18.91;54.08
72116;BME280;59991;52.140;5.428;2023-06-10T02:20:42;101543.66;;;18.91;54.46
72116;BME280;59991;52.140;5.428;2023-06-10T02:21:13;101542.09;;;18.90;53.80
72116;BME280;59991;52.140;5.428;2023-06-10T02:21:44;101540.53;;;18.89;54.04
72116;BME280;59991;52.140;5.428;2023-06-10T02:22:16;101543.66;;;18.91;54.67
72116;BME280;59991;52.140;5.428;2023-06-10T02:22:47;101540.91;;;18.91;54.41
72116;BME280;59991;52.140;5.428;2023-06-10T02:23:19;101547.22;;;18.91;55.39
72116;BME280;59991;52.140;5.428;2023-06-10T02:23:51;101551.97;;;18.91;54.95
72116;BME280;59991;52.140;5.428;2023-06-10T02:24:22;101536.22;;;18.88;55.85
72116;BME280;59991;52.140;5.428;2023-06-10T02:24:54;101542.16;;;18.86;54.83
72116;BME280;59991;52.140;5.428;2023-06-10T02:25:26;101546.56;;;18.84;54.79
72116;BME280;59991;52.140;5.428;2023-06-10T02:25:57;101548.94;;;18.82;55.45
72116;BME280;59991;52.140;5.428;2023-06-10T02:26:29;101548.56;;;18.80;54.71
72116;BME280;59991;52.140;5.428;2023-06-10T02:27:00;101547.00;;;18.79;55.30
72116;BME280;59991;52.140;5.428;2023-06-10T02:27:32;101552.16;;;18.77;55.01
72116;BME280;59991;52.140;5.428;2023-06-10T02:28:04;101553.72;;;18.78;54.42
72116;BME280;59991;52.140;5.428;2023-06-10T02:28:35;101560.44;;;18.77;54.79
72116;BME280;59991;52.140;5.428;2023-06-10T02:29:07;101556.50;;;18.78;54.58
72116;BME280;59991;52.140;5.428;2023-06-10T02:29:38;101557.69;;;18.77;54.75
72116;BME280;59991;52.140;5.428;2023-06-10T02:30:10;101554.94;;;18.77;55.05
72116;BME280;59991;52.140;5.428;2023-06-10T02:30:42;101558.88;;;18.76;54.99
72116;BME280;59991;52.140;5.428;2023-06-10T02:31:13;101560.09;;;18.75;54.96
72116;BME280;59991;52.140;5.428;2023-06-10T02:31:45;101558.53;;;18.74;55.45
72116;BME280;59991;52.140;5.428;2023-06-10T02:32:17;101560.09;;;18.75;54.77
72116;BME280;59991;52.140;5.428;2023-06-10T02:32:48;101552.59;;;18.75;55.67
72116;BME280;59991;52.140;5.428;2023-06-10T02:33:22;101555.34;;;18.75;55.25
72116;BME280;59991;52.140;5.428;2023-06-10T02:33:54;101558.09;;;18.75;55.95
72116;BME280;59991;52.140;5.428;2023-06-10T02:34:26;101557.31;;;18.75;55.02
72116;BME280;59991;52.140;5.428;2023-06-10T02:34:58;101557.75;;;18.73;55.52
72116;BME280;59991;52.140;5.428;2023-06-10T02:35:31;101558.53;;;18.74;55.21
72116;BME280;59991;52.140;5.428;2023-06-10T02:36:03;101561.28;;;18.74;55.05
72116;BME280;59991;52.140;5.428;2023-06-10T02:36:35;101562.06;;;18.74;55.07
72116;BME280;59991;52.140;5.428;2023-06-10T02:37:07;101558.88;;;18.76;54.97
72116;BME280;59991;52.140;5.428;2023-06-10T02:37:38;101557.75;;;18.73;55.26
72116;BME280;59991;52.140;5.428;2023-06-10T02:38:10;101560.09;;;18.75;55.34
72116;BME280;59991;52.140;5.428;2023-06-10T02:38:41;101567.59;;;18.74;55.64
72116;BME280;59991;52.140;5.428;2023-06-10T02:39:13;101566.81;;;18.74;55.70
72116;BME280;59991;52.140;5.428;2023-06-10T02:39:45;101561.69;;;18.72;55.48
72116;BME280;59991;52.140;5.428;2023-06-10T02:40:16;101559.72;;;18.73;55.42
72116;BME280;59991;52.140;5.428;2023-06-10T02:40:48;101564.50;;;18.69;54.88
72116;BME280;59991;52.140;5.428;2023-06-10T02:41:19;101559.81;;;18.66;55.69
72116;BME280;59991;52.140;5.428;2023-06-10T02:41:52;101564.56;;;18.65;55.64
72116;BME280;59991;52.140;5.428;2023-06-10T02:42:24;101568.13;;;18.66;55.51
72116;BME280;59991;52.140;5.428;2023-06-10T02:42:56;101568.47;;;18.68;55.72
72116;BME280;59991;52.140;5.428;2023-06-10T02:43:27;101566.06;;;18.70;56.27
72116;BME280;59991;52.140;5.428;2023-06-10T02:43:59;101564.13;;;18.67;55.43
72116;BME280;59991;52.140;5.428;2023-06-10T02:44:30;101562.94;;;18.68;55.79
72116;BME280;59991;52.140;5.428;2023-06-10T02:45:02;101555.44;;;18.68;56.12
72116;BME280;59991;52.140;5.428;2023-06-10T02:45:34;101565.28;;;18.69;55.52
72116;BME280;59991;52.140;5.428;2023-06-10T02:46:05;101555.44;;;18.68;55.82
72116;BME280;59991;52.140;5.428;2023-06-10T02:46:37;101557.84;;;18.66;56.28
72116;BME280;59991;52.140;5.428;2023-06-10T02:47:08;101562.22;;;18.63;56.07
72116;BME280;59991;52.140;5.428;2023-06-10T02:47:41;101562.63;;;18.62;55.96
72116;BME280;59991;52.140;5.428;2023-06-10T02:48:13;101562.63;;;18.62;56.49
72116;BME280;59991;52.140;5.428;2023-06-10T02:48:45;101555.91;;;18.63;56.47
72116;BME280;59991;52.140;5.428;2023-06-10T02:49:16;101559.88;;;18.62;56.80
72116;BME280;59991;52.140;5.428;2023-06-10T02:49:48;101560.66;;;18.62;55.84
72116;BME280;59991;52.140;5.428;2023-06-10T02:50:19;101561.84;;;18.61;55.75
72116;BME280;59991;52.140;5.428;2023-06-10T02:50:51;101563.03;;;18.60;56.11
72116;BME280;59991;52.140;5.428;2023-06-10T02:51:22;101563.84;;;18.57;55.61
72116;BME280;59991;52.140;5.428;2023-06-10T02:51:54;101565.41;;;18.58;56.41
72116;BME280;59991;52.140;5.428;2023-06-10T02:52:25;101561.50;;;18.56;56.18